In Rescue
 
Open Full Screen Window  High Contrast Mode
Wind Gusting 00 knots
06
July 23, 2019 12:42 AM EDT
Weather Information
Wind Direction
  300 °
Wind Speed
  06 kt (7 mph)
Wind Gust
  00 kt (0 mph)
Altimeter
30.02 in
Visibility
10 SM
Temperature
16° C
61° F
Dewpoint
10° C
50° F
Humidity
68%
Sky Condition
Clear
VFR

METAR KHYX 230442Z AUTO 30006KT 10SM CLR 16/10 A3002 RMK AO2

FAA Disclaimer: The data displayed is for advisory purposes only and is not to be used for flight planning or operations.